Time;durP1;ratioP1;P1;durP2;ratioP2;P2;SDS_P1;SDS_P2;PMS_P1;PMS_P2;Temp;Humidity;BMP_temperature;BMP_pressure;BME280_temperature;BME280_humidity;BME280_pressure;Samples;Min_cycle;Max_cycle;Signal;HPM_P1;HPM_P2
2022/05/06 00:01:03;;;;;;;23.05;16.13;;;12.80;99.90;;;;;;4902835;29;20139;-91
2022/05/06 00:03:29;;;;;;;23.05;16.05;;;12.70;99.90;;;;;;4891063;29;20033;-90
2022/05/06 00:05:55;;;;;;;21.50;15.30;;;12.70;99.90;;;;;;4892212;29;20044;-90
2022/05/06 00:08:20;;;;;;;20.85;14.73;;;12.60;99.90;;;;;;4886140;29;20029;-91
2022/05/06 00:10:46;;;;;;;21.15;15.85;;;12.60;99.90;;;;;;4881867;29;20032;-90
2022/05/06 00:13:12;;;;;;;23.88;16.98;;;12.50;99.90;;;;;;4881368;29;20124;-91
2022/05/06 00:15:38;;;;;;;24.42;17.58;;;12.40;99.90;;;;;;4866909;29;20024;-90
2022/05/06 00:18:03;;;;;;;23.52;16.48;;;12.40;99.90;;;;;;4865405;29;20033;-91
2022/05/06 00:20:29;;;;;;;23.13;16.27;;;12.30;99.90;;;;;;4870519;29;20028;-91
2022/05/06 00:22:57;;;;;;;23.17;16.67;;;12.30;99.90;;;;;;4884851;29;20428;-90
2022/05/06 00:25:23;;;;;;;24.50;17.90;;;12.20;99.90;;;;;;4888036;29;20029;-90
2022/05/06 00:27:49;;;;;;;24.08;17.73;;;12.20;99.90;;;;;;4885718;29;20136;-91
2022/05/06 00:30:15;;;;;;;23.15;16.27;;;12.20;99.90;;;;;;4887846;29;20496;-90
2022/05/06 00:32:40;;;;;;;23.20;17.13;;;12.20;99.90;;;;;;4897700;29;20051;-90
2022/05/06 00:35:06;;;;;;;23.40;16.38;;;12.20;99.90;;;;;;4897785;29;20009;-90
2022/05/06 00:37:32;;;;;;;22.17;17.15;;;12.10;99.90;;;;;;4898178;29;20029;-90
2022/05/06 00:39:58;;;;;;;21.75;16.00;;;12.20;99.90;;;;;;4897665;29;20049;-90
2022/05/06 00:42:35;;;;;;;22.33;16.13;;;12.10;99.90;;;;;;4896220;29;20048;-89
2022/05/06 00:45:02;;;;;;;26.17;16.52;;;12.10;99.90;;;;;;4898450;29;20076;-90
2022/05/06 00:47:48;;;;;;;21.75;16.33;;;12.10;99.90;;;;;;4914522;29;20017;-90
2022/05/06 00:50:14;;;;;;;25.48;18.15;;;12.10;99.90;;;;;;4918438;29;20021;-92
2022/05/06 00:52:39;;;;;;;26.52;18.40;;;12.00;99.90;;;;;;4903469;29;20036;-89
2022/05/06 00:55:06;;;;;;;26.23;18.88;;;12.00;99.90;;;;;;4918922;29;20029;-92
2022/05/06 00:57:32;;;;;;;26.95;18.83;;;12.00;99.90;;;;;;4918180;29;20013;-90
2022/05/06 01:00:19;;;;;;;24.02;17.35;;;11.90;99.90;;;;;;4917555;29;20016;-91
2022/05/06 01:02:46;;;;;;;25.75;18.88;;;11.90;99.90;;;;;;4901516;29;20021;-87
2022/05/06 01:05:13;;;;;;;27.23;19.38;;;11.80;99.90;;;;;;4902405;29;20013;-93
2022/05/06 01:07:39;;;;;;;27.17;20.52;;;11.80;99.90;;;;;;4899812;29;20045;-90
2022/05/06 01:10:06;;;;;;;26.27;19.17;;;11.70;99.90;;;;;;4899288;29;20048;-91
2022/05/06 01:12:31;;;;;;;29.08;20.52;;;11.70;99.90;;;;;;4894348;29;20054;-91
2022/05/06 01:14:58;;;;;;;28.27;20.48;;;11.70;99.90;;;;;;4893821;29;20018;-90
2022/05/06 01:17:24;;;;;;;29.27;20.60;;;11.70;99.90;;;;;;4892981;29;20116;-92
2022/05/06 01:19:49;;;;;;;29.75;21.58;;;11.70;99.90;;;;;;4892049;29;20238;-90
2022/05/06 01:22:17;;;;;;;32.88;22.48;;;11.70;99.90;;;;;;4891558;29;20492;-91
2022/05/06 01:24:43;;;;;;;30.58;21.90;;;11.70;99.90;;;;;;4892881;29;20041;-92
2022/05/06 01:27:14;;;;;;;33.70;21.58;;;11.60;99.90;;;;;;4889235;29;20477;-91
2022/05/06 01:29:42;;;;;;;31.40;21.88;;;11.60;99.90;;;;;;4886818;29;20044;-90
2022/05/06 01:32:08;;;;;;;30.25;20.88;;;11.50;99.90;;;;;;4887487;29;20028;-91
2022/05/06 01:34:42;;;;;;;27.65;19.85;;;11.50;99.90;;;;;;4890486;29;20579;-90
2022/05/06 01:37:11;;;;;;;30.27;21.35;;;11.50;99.90;;;;;;4891370;29;20025;-92
2022/05/06 01:39:38;;;;;;;27.80;20.38;;;11.40;99.90;;;;;;4891202;29;20403;-94
2022/05/06 01:42:06;;;;;;;25.25;19.60;;;11.40;99.90;;;;;;4888204;29;20032;-92
2022/05/06 01:44:38;;;;;;;28.50;19.67;;;11.40;99.90;;;;;;4886632;29;20032;-92
2022/05/06 01:47:19;;;;;;;25.40;19.25;;;11.40;99.90;;;;;;4888370;29;20036;-92
2022/05/06 01:49:49;;;;;;;27.65;20.33;;;11.30;99.90;;;;;;4887414;29;20036;-91
2022/05/06 01:52:18;;;;;;;27.25;19.48;;;11.30;99.90;;;;;;4888255;29;20090;-90
2022/05/06 01:54:44;;;;;;;29.77;21.40;;;11.30;99.90;;;;;;4888130;29;20053;-91
2022/05/06 01:57:10;;;;;;;29.85;21.58;;;11.20;99.90;;;;;;4887716;29;20054;-92
2022/05/06 01:59:36;;;;;;;34.92;22.80;;;11.20;99.90;;;;;;4884910;29;20029;-92
2022/05/06 02:02:01;;;;;;;33.17;23.73;;;11.20;99.90;;;;;;4890340;29;20029;-91
2022/05/06 02:07:11;;;;;;;32.08;22.25;;;11.10;99.90;;;;;;4887179;29;20044;-92
2022/05/06 02:09:37;;;;;;;30.30;20.70;;;11.10;99.90;;;;;;4884313;29;20041;-91
2022/05/06 02:12:02;;;;;;;29.33;20.48;;;11.20;99.90;;;;;;4883844;29;20491;-92
2022/05/06 02:14:28;;;;;;;34.08;20.38;;;11.30;99.90;;;;;;4883875;29;20040;-94
2022/05/06 02:16:54;;;;;;;35.92;22.35;;;11.30;99.90;;;;;;4883879;29;20037;-91
2022/05/06 02:19:20;;;;;;;36.03;23.42;;;11.40;99.90;;;;;;4885955;29;20029;-90
2022/05/06 02:21:47;;;;;;;38.53;22.48;;;11.40;99.90;;;;;;4891632;29;20116;-90
2022/05/06 02:24:12;;;;;;;42.33;25.20;;;11.40;99.90;;;;;;4888681;29;20069;-92
2022/05/06 02:26:38;;;;;;;35.05;23.67;;;11.40;99.90;;;;;;4886607;29;20064;-90
2022/05/06 02:29:05;;;;;;;51.40;24.10;;;11.40;99.90;;;;;;4887108;29;20499;-90
2022/05/06 02:34:19;;;;;;;34.35;22.42;;;11.30;99.90;;;;;;4890969;29;20157;-89
2022/05/06 02:36:47;;;;;;;32.20;23.83;;;11.20;99.90;;;;;;4886708;29;20397;-91
2022/05/06 02:39:13;;;;;;;26.42;20.45;;;11.20;99.90;;;;;;4883371;29;20029;-91
2022/05/06 02:41:38;;;;;;;27.40;20.13;;;11.20;99.90;;;;;;4885015;29;20049;-90
2022/05/06 02:44:04;;;;;;;26.95;20.52;;;11.10;99.90;;;;;;4886809;29;20089;-91
2022/05/06 02:46:36;;;;;;;30.55;20.23;;;11.20;99.90;;;;;;4886164;29;20021;-91
2022/05/06 02:49:02;;;;;;;30.20;19.13;;;11.20;99.90;;;;;;4887362;29;20033;-91
2022/05/06 02:51:28;;;;;;;25.42;17.77;;;11.10;99.90;;;;;;4889223;29;20085;-90
2022/05/06 02:53:56;;;;;;;29.65;18.90;;;11.10;99.90;;;;;;4841920;29;1315681;-88
2022/05/06 02:56:22;;;;;;;28.27;19.52;;;11.10;99.90;;;;;;4888067;29;20078;-91
2022/05/06 02:58:47;;;;;;;25.25;19.38;;;11.10;99.90;;;;;;4885525;29;20017;-91
2022/05/06 03:01:13;;;;;;;29.45;20.45;;;11.10;99.90;;;;;;4884043;29;20096;-89
2022/05/06 03:03:39;;;;;;;30.13;19.98;;;11.10;99.90;;;;;;4890293;29;20081;-91
2022/05/06 03:06:04;;;;;;;28.20;19.25;;;11.00;99.90;;;;;;4884501;29;20125;-92
2022/05/06 03:08:30;;;;;;;28.55;19.48;;;11.00;99.90;;;;;;4885155;29;20460;-92
2022/05/06 03:10:56;;;;;;;27.73;19.88;;;11.00;99.90;;;;;;4884426;29;20360;-90
2022/05/06 03:13:21;;;;;;;29.30;19.50;;;11.00;99.90;;;;;;4883387;29;20436;-91
2022/05/06 03:15:47;;;;;;;27.00;20.27;;;11.00;99.90;;;;;;4870287;29;20353;-91
2022/05/06 03:18:13;;;;;;;25.25;19.00;;;10.90;99.90;;;;;;4886096;29;20047;-90
2022/05/06 03:20:39;;;;;;;23.75;17.95;;;11.00;99.90;;;;;;4888361;29;20021;-90
2022/05/06 03:23:06;;;;;;;23.85;17.63;;;10.90;99.90;;;;;;4889304;29;20041;-88
2022/05/06 03:25:32;;;;;;;23.67;17.90;;;11.00;99.90;;;;;;4889992;29;20040;-89
2022/05/06 03:28:07;;;;;;;23.52;18.10;;;11.00;99.90;;;;;;4886664;29;20044;-89
2022/05/06 03:30:39;;;;;;;30.35;19.70;;;10.90;99.90;;;;;;4885302;29;20033;-91
2022/05/06 03:33:11;;;;;;;25.52;18.63;;;10.90;99.90;;;;;;4886946;29;20044;-90
2022/05/06 03:35:40;;;;;;;22.27;18.13;;;10.80;99.90;;;;;;4885283;29;20029;-91
2022/05/06 03:38:09;;;;;;;20.23;16.92;;;10.70;99.90;;;;;;4885554;29;20084;-90
2022/05/06 03:40:35;;;;;;;22.48;17.35;;;10.60;99.90;;;;;;4870353;29;20033;-91
2022/05/06 03:43:01;;;;;;;23.33;18.38;;;10.60;99.90;;;;;;4884505;29;20100;-89
2022/05/06 03:45:27;;;;;;;21.25;17.73;;;10.60;99.90;;;;;;4886633;29;20025;-91
2022/05/06 03:48:00;;;;;;;22.15;17.38;;;10.50;99.90;;;;;;4885379;29;20057;-91
2022/05/06 03:53:11;;;;;;;29.92;20.67;;;10.50;99.90;;;;;;4883720;29;20056;-90
2022/05/06 03:55:37;;;;;;;23.45;18.20;;;10.50;99.90;;;;;;4882765;29;20128;-91
2022/05/06 03:58:02;;;;;;;24.17;18.73;;;10.40;99.90;;;;;;4883302;29;20048;-91
2022/05/06 04:00:28;;;;;;;22.88;18.10;;;10.40;99.90;;;;;;4881704;29;20069;-91
2022/05/06 04:02:54;;;;;;;22.17;18.02;;;10.40;99.90;;;;;;4881793;29;20036;-91
2022/05/06 04:05:20;;;;;;;22.27;17.00;;;10.40;99.90;;;;;;4881657;29;20025;-92
2022/05/06 04:07:46;;;;;;;21.10;16.40;;;10.40;99.90;;;;;;4881358;29;20450;-92
2022/05/06 04:10:12;;;;;;;25.23;18.55;;;10.40;99.90;;;;;;4881305;29;20715;-91
2022/05/06 04:12:39;;;;;;;25.23;17.75;;;10.40;99.90;;;;;;4881038;29;20064;-89
2022/05/06 04:15:06;;;;;;;19.40;16.25;;;10.30;99.90;;;;;;4880915;29;20044;-90
2022/05/06 04:17:32;;;;;;;21.15;16.52;;;10.30;99.90;;;;;;4880698;29;20072;-90
2022/05/06 04:25:26;;;;;;;19.42;15.95;;;10.30;99.90;;;;;;4889222;29;20040;-91
2022/05/06 04:27:51;;;;;;;19.65;15.43;;;10.30;99.90;;;;;;4880814;29;20029;-91
2022/05/06 04:30:17;;;;;;;20.50;15.18;;;10.30;99.90;;;;;;4880520;29;20070;-90
2022/05/06 04:32:43;;;;;;;19.35;14.82;;;10.30;99.90;;;;;;4880691;29;20108;-90
2022/05/06 04:35:09;;;;;;;17.40;13.38;;;10.40;99.90;;;;;;4880700;29;20028;-91
2022/05/06 04:37:35;;;;;;;23.63;15.63;;;10.40;99.90;;;;;;4880534;29;20033;-92
2022/05/06 04:40:01;;;;;;;24.45;17.95;;;10.40;99.90;;;;;;4880807;29;20070;-92
2022/05/06 04:42:27;;;;;;;24.50;17.67;;;10.30;99.90;;;;;;4880481;29;20080;-91
2022/05/06 04:44:53;;;;;;;19.40;15.60;;;10.30;99.90;;;;;;4880909;29;20050;-92
2022/05/06 04:47:18;;;;;;;23.23;15.65;;;10.30;99.90;;;;;;4880883;29;20021;-92
2022/05/06 04:49:44;;;;;;;18.90;14.48;;;10.40;99.90;;;;;;4880195;29;20412;-90
2022/05/06 04:52:10;;;;;;;17.55;13.75;;;10.30;99.90;;;;;;4880701;29;20037;-91
2022/05/06 04:54:35;;;;;;;19.42;14.68;;;10.30;99.90;;;;;;4880144;29;20093;-93
2022/05/06 04:57:01;;;;;;;16.17;12.80;;;10.30;99.90;;;;;;4880560;29;20028;-91
2022/05/06 04:59:28;;;;;;;15.85;13.02;;;10.40;99.90;;;;;;4880655;29;20087;-92
2022/05/06 05:01:54;;;;;;;16.35;13.07;;;10.40;99.90;;;;;;4880575;29;20053;-92
2022/05/06 05:04:19;;;;;;;15.95;13.05;;;10.40;99.90;;;;;;4880711;29;20484;-93
2022/05/06 05:06:45;;;;;;;16.40;12.93;;;10.30;99.90;;;;;;4880129;29;20029;-92
2022/05/06 05:09:11;;;;;;;14.57;12.38;;;10.40;99.90;;;;;;4880432;29;20491;-91
2022/05/06 05:11:37;;;;;;;15.68;12.73;;;10.40;99.90;;;;;;4880768;29;20092;-91
2022/05/06 05:14:06;;;;;;;17.83;13.80;;;10.40;99.90;;;;;;4881032;29;20057;-91
2022/05/06 05:16:33;;;;;;;15.75;13.40;;;10.40;99.90;;;;;;4880664;29;20013;-92
2022/05/06 05:18:59;;;;;;;18.50;14.75;;;10.30;99.90;;;;;;4880141;29;20025;-91
2022/05/06 05:21:25;;;;;;;18.35;13.75;;;10.30;99.90;;;;;;4880333;29;20021;-92
2022/05/06 05:23:50;;;;;;;17.33;13.68;;;10.30;99.90;;;;;;4880143;29;20445;-91
2022/05/06 05:26:16;;;;;;;20.48;14.27;;;10.30;99.90;;;;;;4880182;29;20031;-91
2022/05/06 05:28:41;;;;;;;19.73;15.80;;;10.30;99.90;;;;;;4880492;29;20040;-91
2022/05/06 05:31:07;;;;;;;17.05;13.60;;;10.30;99.90;;;;;;4880229;29;20025;-94
2022/05/06 05:33:33;;;;;;;17.98;13.95;;;10.40;99.90;;;;;;4880202;29;20417;-90
2022/05/06 05:35:58;;;;;;;20.63;14.48;;;10.50;99.90;;;;;;4882091;29;20066;-90
2022/05/06 05:38:24;;;;;;;18.67;14.95;;;10.50;99.90;;;;;;4880211;29;20133;-92
2022/05/06 05:40:50;;;;;;;20.67;14.20;;;10.50;99.90;;;;;;4880264;29;20049;-91
2022/05/06 05:48:43;;;;;;;16.63;13.20;;;10.60;99.90;;;;;;4882795;29;20048;-90
2022/05/06 05:51:09;;;;;;;25.40;14.20;;;10.70;99.90;;;;;;4883686;29;20025;-89
2022/05/06 05:53:35;;;;;;;20.80;14.38;;;10.70;99.90;;;;;;4878702;29;20457;-90
2022/05/06 05:56:02;;;;;;;21.50;15.18;;;10.80;99.90;;;;;;4878275;29;20036;-91
2022/05/06 05:58:28;;;;;;;21.10;13.90;;;10.90;99.90;;;;;;4875251;29;20037;-86
2022/05/06 06:00:54;;;;;;;16.27;13.75;;;11.00;99.90;;;;;;4860473;29;20026;-89
2022/05/06 06:03:20;;;;;;;17.83;14.48;;;11.10;99.90;;;;;;4880307;29;20026;-89
2022/05/06 06:05:45;;;;;;;21.52;14.05;;;11.10;99.90;;;;;;4879729;29;20049;-91
2022/05/06 06:08:11;;;;;;;40.63;15.73;;;11.20;99.90;;;;;;4880428;29;20102;-91
2022/05/06 06:10:37;;;;;;;22.45;16.08;;;11.20;99.90;;;;;;4881921;29;20053;-86
2022/05/06 06:13:04;;;;;;;29.40;18.02;;;11.30;99.90;;;;;;4868501;29;20034;-89
2022/05/06 06:15:30;;;;;;;18.38;14.57;;;11.30;99.90;;;;;;4881397;29;20037;-90
2022/05/06 06:17:56;;;;;;;24.77;15.13;;;11.40;99.90;;;;;;4884633;29;20057;-88
2022/05/06 06:20:23;;;;;;;20.98;16.90;;;11.40;99.90;;;;;;4883145;29;20073;-87
2022/05/06 06:22:50;;;;;;;40.20;18.65;;;11.50;99.90;;;;;;4881825;29;20120;-89
2022/05/06 06:25:16;;;;;;;23.92;17.33;;;11.50;99.90;;;;;;4867998;29;20074;-88
2022/05/06 06:27:45;;;;;;;24.27;17.42;;;11.50;99.90;;;;;;4853673;29;20435;-89
2022/05/06 06:30:11;;;;;;;23.15;17.27;;;11.40;99.90;;;;;;4860163;29;20030;-86
2022/05/06 06:32:37;;;;;;;31.08;18.23;;;11.30;99.90;;;;;;4853273;29;20041;-87
2022/05/06 06:35:03;;;;;;;30.35;20.58;;;11.20;99.90;;;;;;4850256;29;20060;-87
2022/05/06 06:37:31;;;;;;;18.60;15.38;;;11.20;99.90;;;;;;4844755;29;20476;-88
2022/05/06 06:39:57;;;;;;;19.73;14.57;;;11.10;99.90;;;;;;4843982;29;20050;-88
2022/05/06 06:42:23;;;;;;;19.92;15.23;;;11.20;99.90;;;;;;4853858;29;20018;-89
2022/05/06 06:44:49;;;;;;;17.10;12.88;;;11.30;99.90;;;;;;4850150;29;20027;-84
2022/05/06 06:47:15;;;;;;;18.25;14.18;;;11.50;99.90;;;;;;4849631;29;20033;-89
2022/05/06 06:49:40;;;;;;;20.27;14.65;;;11.50;99.90;;;;;;4858200;29;20191;-89
2022/05/06 06:52:06;;;;;;;21.13;14.90;;;11.50;99.90;;;;;;4857741;29;20025;-88
2022/05/06 06:54:33;;;;;;;19.88;15.23;;;11.60;99.90;;;;;;4873726;29;20057;-88
2022/05/06 06:56:59;;;;;;;19.92;14.65;;;11.70;99.90;;;;;;4860762;29;20021;-89
2022/05/06 06:59:24;;;;;;;23.40;16.55;;;11.70;99.90;;;;;;4876908;29;20507;-90
2022/05/06 07:01:50;;;;;;;22.42;16.45;;;11.80;99.90;;;;;;4876730;29;20022;-89
2022/05/06 07:04:16;;;;;;;29.92;17.85;;;11.80;99.90;;;;;;4862461;29;20030;-89
2022/05/06 07:12:10;;;;;;;24.02;14.25;;;11.80;99.90;;;;;;4864453;29;20048;-90
2022/05/06 07:14:36;;;;;;;20.33;14.30;;;12.00;99.90;;;;;;4878126;29;20029;-90
2022/05/06 07:17:05;;;;;;;20.00;14.48;;;12.10;99.90;;;;;;4880434;29;20022;-91
2022/05/06 07:19:31;;;;;;;24.92;16.50;;;12.10;99.90;;;;;;4879460;29;20040;-91
2022/05/06 07:21:56;;;;;;;22.55;15.50;;;12.20;99.90;;;;;;4878959;29;20029;-90
2022/05/06 07:24:24;;;;;;;20.52;14.63;;;12.20;99.90;;;;;;4878863;29;20602;-89
2022/05/06 07:26:50;;;;;;;19.75;13.80;;;12.20;99.90;;;;;;4878658;29;20018;-89
2022/05/06 07:29:16;;;;;;;21.77;15.48;;;12.30;99.90;;;;;;4878375;29;20065;-90
2022/05/06 07:31:43;;;;;;;22.45;16.50;;;12.30;99.90;;;;;;4878662;29;20018;-90
2022/05/06 07:34:10;;;;;;;21.33;15.20;;;12.30;99.90;;;;;;4878487;29;20037;-90
2022/05/06 07:36:41;;;;;;;23.33;16.45;;;12.30;99.90;;;;;;4878646;29;20053;-90
2022/05/06 07:39:16;;;;;;;23.27;16.25;;;12.30;99.90;;;;;;4878472;29;20033;-90
2022/05/06 07:41:43;;;;;;;21.30;16.00;;;12.30;99.90;;;;;;4878742;29;20040;-90
2022/05/06 07:44:09;;;;;;;22.85;16.58;;;12.40;99.90;;;;;;4878400;29;20044;-89
2022/05/06 07:46:38;;;;;;;21.17;15.63;;;12.50;99.90;;;;;;4880355;29;20116;-89
2022/05/06 07:49:05;;;;;;;20.95;15.13;;;12.50;99.90;;;;;;4878218;29;20065;-89
2022/05/06 07:51:31;;;;;;;19.50;14.70;;;12.60;99.90;;;;;;4877996;29;20392;-89
2022/05/06 07:53:57;;;;;;;21.65;15.27;;;12.70;99.90;;;;;;4877182;29;20061;-90
2022/05/06 07:56:28;;;;;;;20.27;13.77;;;12.80;99.90;;;;;;4863107;29;20441;-90
2022/05/06 07:58:54;;;;;;;23.23;18.65;;;12.90;99.90;;;;;;4877335;29;20473;-89
2022/05/06 08:04:32;;;;;;;22.17;16.70;;;13.10;99.90;;;;;;4862900;29;20069;-90
2022/05/06 08:06:53;;;;;;;20.08;15.05;;;13.30;99.90;;;;;;4863537;29;20121;-91
2022/05/06 08:09:20;;;;;;;19.27;15.70;;;13.40;99.90;;;;;;4877808;29;20025;-90
2022/05/06 08:11:46;;;;;;;18.00;13.57;;;13.40;99.90;;;;;;4877749;29;20029;-91
2022/05/06 08:14:13;;;;;;;17.45;12.93;;;13.60;99.90;;;;;;4877280;29;20022;-91
2022/05/06 08:16:39;;;;;;;15.88;11.90;;;13.90;99.90;;;;;;4877443;29;20041;-91
2022/05/06 08:19:04;;;;;;;18.75;14.32;;;14.10;99.90;;;;;;4877625;29;20409;-92
2022/05/06 08:21:30;;;;;;;17.00;13.88;;;14.20;99.90;;;;;;4877901;29;20437;-90
2022/05/06 08:23:56;;;;;;;16.88;13.57;;;14.20;99.90;;;;;;4877906;29;20033;-88
2022/05/06 08:26:21;;;;;;;14.93;11.95;;;14.10;99.90;;;;;;4876864;29;20120;-90
2022/05/06 08:28:47;;;;;;;15.55;12.73;;;14.20;99.90;;;;;;4877068;29;20052;-89
2022/05/06 08:31:13;;;;;;;17.30;13.27;;;14.10;99.90;;;;;;4876886;29;20396;-89
2022/05/06 08:33:38;;;;;;;14.52;10.93;;;14.00;99.90;;;;;;4876946;29;20067;-90
2022/05/06 08:36:07;;;;;;;16.58;12.68;;;14.10;99.90;;;;;;4877012;29;20120;-89
2022/05/06 08:38:32;;;;;;;14.23;11.52;;;14.20;99.90;;;;;;4862893;29;20112;-90
2022/05/06 08:41:00;;;;;;;15.25;11.90;;;14.30;99.90;;;;;;4862725;29;20029;-89
2022/05/06 08:43:26;;;;;;;14.77;11.65;;;14.50;99.90;;;;;;4876594;29;20040;-89
2022/05/06 08:51:31;;;;;;;17.05;13.35;;;14.60;99.90;;;;;;4863489;29;20090;-90
2022/05/06 08:53:57;;;;;;;19.80;16.48;;;14.70;99.90;;;;;;4876114;29;20062;-89
2022/05/06 08:56:22;;;;;;;16.92;13.38;;;14.90;99.90;;;;;;4861865;29;20378;-89
2022/05/06 08:58:50;;;;;;;14.80;10.98;;;15.00;99.90;;;;;;4876479;29;20073;-90
2022/05/06 09:01:20;;;;;;;12.70;9.60;;;15.10;99.90;;;;;;4876869;29;20033;-90
2022/05/06 09:03:48;;;;;;;14.80;11.57;;;15.30;99.90;;;;;;4861726;29;20053;-90
2022/05/06 09:06:19;;;;;;;16.80;12.95;;;15.50;99.90;;;;;;4862904;29;20029;-90
2022/05/06 09:08:46;;;;;;;14.43;11.38;;;15.60;99.90;;;;;;4862245;29;20067;-90
2022/05/06 09:11:12;;;;;;;13.40;9.98;;;15.50;99.90;;;;;;4877237;29;20030;-89
2022/05/06 09:13:49;;;;;;;14.30;11.45;;;15.50;99.90;;;;;;4863851;29;20029;-89
2022/05/06 09:19:19;;;;;;;11.73;9.23;;;15.30;99.90;;;;;;4866019;29;20174;-91
2022/05/06 09:22:13;;;;;;;10.27;8.27;;;15.30;99.90;;;;;;4864364;29;20499;-90
2022/05/06 09:24:40;;;;;;;12.38;10.23;;;15.30;99.90;;;;;;4861199;29;20090;-89
2022/05/06 09:27:15;;;;;;;10.40;8.70;;;15.40;99.90;;;;;;4876596;29;20082;-88
2022/05/06 09:29:46;;;;;;;10.48;8.55;;;15.50;99.90;;;;;;4861237;29;20030;-89
2022/05/06 09:32:14;;;;;;;10.13;8.57;;;15.50;99.90;;;;;;4861441;29;20097;-89
2022/05/06 09:34:41;;;;;;;10.85;8.60;;;16.30;99.90;;;;;;4861171;29;20025;-89
2022/05/06 09:37:07;;;;;;;11.00;8.77;;;17.70;99.90;;;;;;4862018;29;20041;-90
2022/05/06 09:39:33;;;;;;;11.02;8.55;;;18.90;99.90;;;;;;4864566;29;20029;-89
2022/05/06 09:42:04;;;;;;;7.82;6.78;;;20.00;99.90;;;;;;4864818;29;20036;-89
2022/05/06 09:44:31;;;;;;;6.82;5.45;;;20.80;99.90;;;;;;4864936;29;20061;-90
2022/05/06 09:47:10;;;;;;;9.15;7.47;;;21.30;99.90;;;;;;4865547;29;20085;-89
2022/05/06 09:49:45;;;;;;;7.95;6.38;;;21.80;99.90;;;;;;4864042;29;20072;-90
2022/05/06 09:52:15;;;;;;;6.50;5.35;;;22.30;99.90;;;;;;4864449;29;20052;-90
2022/05/06 09:54:43;;;;;;;6.68;5.75;;;22.70;99.90;;;;;;4882173;29;20055;-90
2022/05/06 09:57:11;;;;;;;8.10;5.97;;;23.30;99.90;;;;;;4883576;29;20032;-90
2022/05/06 09:59:37;;;;;;;6.35;5.65;;;23.70;99.90;;;;;;4885753;29;20133;-89
2022/05/06 10:02:08;;;;;;;6.55;5.03;;;24.10;99.90;;;;;;4888160;29;20080;-89
2022/05/06 10:04:35;;;;;;;6.05;5.43;;;24.80;99.90;;;;;;4888594;29;20029;-88
2022/05/06 10:07:03;;;;;;;5.25;3.80;;;25.10;99.90;;;;;;4883212;29;20025;-89
2022/05/06 10:09:53;;;;;;;4.57;3.80;;;25.10;99.90;;;;;;4884818;29;20040;-90
2022/05/06 10:12:21;;;;;;;5.93;4.47;;;25.50;99.90;;;;;;4875511;29;20112;-89
2022/05/06 10:14:48;;;;;;;5.22;4.30;;;25.80;99.90;;;;;;4883849;29;20350;-90
2022/05/06 10:17:49;;;;;;;6.25;4.78;;;26.10;99.90;;;;;;4884140;29;20026;-89
2022/05/06 10:20:37;;;;;;;6.15;3.92;;;25.90;98.30;;;;;;4869066;29;20025;-90
2022/05/06 10:23:11;;;;;;;5.28;3.58;;;25.90;98.30;;;;;;4883568;29;20033;-90
2022/05/06 10:25:40;;;;;;;5.30;3.42;;;26.30;98.20;;;;;;4882891;29;20060;-90
2022/05/06 10:34:14;;;;;;;5.25;3.38;;;26.60;96.10;;;;;;4883159;29;20055;-90
2022/05/06 10:36:42;;;;;;;4.35;3.15;;;26.70;95.50;;;;;;4883589;29;20033;-91
2022/05/06 10:39:37;;;;;;;3.42;2.88;;;26.60;94.70;;;;;;4882280;29;20029;-89
2022/05/06 10:42:06;;;;;;;3.90;2.55;;;26.90;94.30;;;;;;4869986;29;20041;-91
2022/05/06 10:44:36;;;;;;;5.13;2.75;;;27.20;93.90;;;;;;4883264;29;20115;-91
2022/05/06 10:47:19;;;;;;;5.30;2.00;;;27.50;92.70;;;;;;4881823;29;20392;-90
2022/05/06 10:49:52;;;;;;;2.47;1.90;;;27.60;92.10;;;;;;4882004;29;20039;-89
2022/05/06 10:54:52;;;;;;;2.20;2.00;;;27.90;91.40;;;;;;4883074;29;20053;-90
2022/05/06 10:57:22;;;;;;;1.80;1.40;;;28.20;90.20;;;;;;4882937;29;20017;-90
2022/05/06 11:00:02;;;;;;;1.60;1.30;;;27.90;89.60;;;;;;4882526;29;20032;-91
2022/05/06 11:02:38;;;;;;;2.03;1.70;;;27.90;89.40;;;;;;4882232;29;20029;-90
2022/05/06 11:05:17;;;;;;;6.60;1.30;;;27.90;88.90;;;;;;4882991;29;20029;-91
2022/05/06 11:07:45;;;;;;;3.70;2.35;;;28.30;89.10;;;;;;4881735;29;20021;-90
2022/05/06 11:10:12;;;;;;;3.58;2.13;;;28.30;87.40;;;;;;4881729;29;20084;-90
2022/05/06 11:12:43;;;;;;;5.75;1.77;;;28.20;86.70;;;;;;4881159;29;20025;-90
2022/05/06 11:15:14;;;;;;;3.15;2.13;;;28.20;86.40;;;;;;4881031;29;20033;-92
2022/05/06 11:17:41;;;;;;;1.95;1.60;;;28.30;85.50;;;;;;4881046;29;20064;-90
2022/05/06 11:20:27;;;;;;;2.30;1.77;;;28.40;85.90;;;;;;4866115;29;20021;-90
2022/05/06 11:22:56;;;;;;;2.08;1.70;;;28.60;84.20;;;;;;4883487;29;20498;-90
2022/05/06 11:25:22;;;;;;;2.15;1.58;;;28.40;83.80;;;;;;4881367;29;20112;-91
2022/05/06 11:27:56;;;;;;;3.63;1.70;;;28.60;83.30;;;;;;4881795;29;20031;-91
2022/05/06 11:30:23;;;;;;;2.63;1.90;;;28.80;82.70;;;;;;4880182;29;20068;-91
2022/05/06 11:32:55;;;;;;;4.35;1.60;;;28.70;81.20;;;;;;4881689;29;20021;-91
2022/05/06 11:35:33;;;;;;;4.03;2.30;;;28.60;81.20;;;;;;4881316;29;20526;-92
2022/05/06 11:38:06;;;;;;;2.47;1.67;;;28.40;81.10;;;;;;4878030;29;20132;-91
2022/05/06 11:40:39;;;;;;;3.92;2.17;;;28.60;81.40;;;;;;4883688;29;20017;-92
2022/05/06 11:43:07;;;;;;;2.70;1.88;;;28.70;79.40;;;;;;4881393;29;20077;-90
2022/05/06 11:48:20;;;;;;;2.38;1.70;;;28.80;80.40;;;;;;4883254;29;20047;-91
2022/05/06 11:50:56;;;;;;;2.30;1.75;;;29.00;79.30;;;;;;4882037;29;20036;-92
2022/05/06 11:53:26;;;;;;;1.55;1.30;;;29.00;78.80;;;;;;4884946;29;20113;-92
2022/05/06 11:55:54;;;;;;;1.92;1.70;;;29.30;79.10;;;;;;4883372;29;20488;-92
2022/05/06 11:58:21;;;;;;;2.42;1.80;;;29.60;78.00;;;;;;4884095;29;20036;-90
2022/05/06 12:00:47;;;;;;;2.15;1.85;;;29.50;77.50;;;;;;4890870;29;20049;-90
2022/05/06 12:03:13;;;;;;;3.83;2.10;;;29.40;77.50;;;;;;4896346;29;20060;-91
2022/05/06 12:05:40;;;;;;;2.38;1.88;;;29.20;77.10;;;;;;4899800;29;20029;-91
2022/05/06 12:08:07;;;;;;;2.88;1.83;;;28.90;76.60;;;;;;4895767;29;20025;-91
2022/05/06 12:10:35;;;;;;;3.15;1.50;;;28.80;76.70;;;;;;4895148;29;20036;-90
2022/05/06 12:13:10;;;;;;;2.65;1.52;;;29.00;77.10;;;;;;4895132;29;20025;-90
2022/05/06 12:15:38;;;;;;;2.50;1.48;;;29.20;75.90;;;;;;4894513;29;20021;-89
2022/05/06 12:18:22;;;;;;;3.17;1.15;;;29.40;76.10;;;;;;4902282;29;20040;-91
2022/05/06 12:20:48;;;;;;;2.38;1.35;;;29.80;76.00;;;;;;4903668;29;20051;-89
2022/05/06 12:23:14;;;;;;;2.65;1.25;;;29.80;75.20;;;;;;4903164;29;20040;-90
2022/05/06 12:25:41;;;;;;;1.98;1.20;;;29.60;73.30;;;;;;4902904;29;20077;-90
2022/05/06 12:28:20;;;;;;;2.58;1.70;;;29.70;74.70;;;;;;4902789;29;20093;-93
2022/05/06 12:30:46;;;;;;;2.75;1.60;;;29.80;73.20;;;;;;4902532;29;20056;-91
2022/05/06 12:33:17;;;;;;;4.97;2.10;;;29.50;73.00;;;;;;4902712;29;20025;-90
2022/05/06 12:35:59;;;;;;;3.60;2.00;;;29.30;73.80;;;;;;4901113;29;20036;-93
2022/05/06 12:38:26;;;;;;;5.57;2.13;;;29.40;74.90;;;;;;4901277;29;20013;-91
2022/05/06 12:40:53;;;;;;;2.50;1.25;;;29.40;74.60;;;;;;4902520;29;20030;-90
2022/05/06 12:43:26;;;;;;;1.45;0.93;;;29.70;73.10;;;;;;4902003;29;20025;-91
2022/05/06 12:45:55;;;;;;;2.90;1.58;;;30.00;71.80;;;;;;4899322;29;20021;-92
2022/05/06 12:51:06;;;;;;;2.25;1.63;;;30.30;71.10;;;;;;4903018;29;20048;-90
2022/05/06 12:53:33;;;;;;;4.30;2.35;;;30.10;71.00;;;;;;4900911;29;20045;-86
2022/05/06 12:56:03;;;;;;;3.90;2.10;;;30.30;70.40;;;;;;4901328;29;20033;-84
2022/05/06 12:58:30;;;;;;;1.50;1.20;;;30.20;68.90;;;;;;4897047;29;20028;-86
2022/05/06 13:01:00;;;;;;;3.55;1.98;;;30.20;68.30;;;;;;4895650;29;20033;-85
2022/05/06 13:03:26;;;;;;;2.22;1.77;;;30.30;68.20;;;;;;4897202;29;20136;-90
2022/05/06 13:05:53;;;;;;;4.07;2.38;;;30.70;68.80;;;;;;4883015;29;20022;-90
2022/05/06 13:08:20;;;;;;;4.95;2.65;;;30.80;67.90;;;;;;4881522;29;20112;-90
2022/05/06 13:10:45;;;;;;;3.65;2.45;;;30.90;68.10;;;;;;4866168;29;20041;-92
2022/05/06 13:13:13;;;;;;;3.33;2.17;;;31.20;67.80;;;;;;4886905;29;20024;-91
2022/05/06 13:15:39;;;;;;;4.82;2.55;;;31.10;68.60;;;;;;4888327;29;20047;-90
2022/05/06 13:18:05;;;;;;;4.53;3.00;;;31.20;68.40;;;;;;4874446;29;20061;-90
2022/05/06 13:20:31;;;;;;;3.97;2.53;;;31.40;67.90;;;;;;4894976;29;20130;-91
2022/05/06 13:22:56;;;;;;;3.53;2.50;;;31.20;67.90;;;;;;4893248;29;20034;-90
2022/05/06 13:25:22;;;;;;;3.70;2.20;;;31.00;67.40;;;;;;4891993;29;20036;-92
2022/05/06 13:27:48;;;;;;;3.38;2.20;;;30.90;67.40;;;;;;4885594;29;20035;-90